createdAt,value
2018-06-05T00:01:16.949Z,83.40
2018-06-05T00:03:45.839Z,83.80
2018-06-05T00:06:14.792Z,84.10
2018-06-05T00:11:12.116Z,84.30
2018-06-05T00:13:41.085Z,84.20
2018-06-05T00:16:09.923Z,84.20
2018-06-05T00:18:38.849Z,84.20
2018-06-05T00:21:07.753Z,84.20
2018-06-05T00:23:36.812Z,84.40
2018-06-05T00:26:05.717Z,84.60
2018-06-05T00:31:03.189Z,85.80
2018-06-05T00:36:00.540Z,86.20
2018-06-05T00:38:29.524Z,86.00
2018-06-05T00:40:58.496Z,86.00
2018-06-05T00:43:27.419Z,86.10
2018-06-05T00:45:56.393Z,86.20
2018-06-05T00:48:25.263Z,86.00
2018-06-05T00:50:54.169Z,86.00
2018-06-05T00:53:23.027Z,85.80
2018-06-05T00:55:51.949Z,85.80
2018-06-05T00:58:20.840Z,85.60
2018-06-05T01:00:49.782Z,85.50
2018-06-05T01:03:18.731Z,85.60
2018-06-05T01:05:47.612Z,86.00
2018-06-05T01:08:16.544Z,86.20
2018-06-05T01:10:45.421Z,86.20
2018-06-05T01:13:14.401Z,86.30
2018-06-05T01:15:43.308Z,86.20
2018-06-05T01:18:12.233Z,86.30
2018-06-05T01:20:41.133Z,86.20
2018-06-05T01:23:10.124Z,86.40
2018-06-05T01:25:39.089Z,86.60
2018-06-05T01:30:36.487Z,86.90
2018-06-05T01:33:05.440Z,87.10
2018-06-05T01:35:34.354Z,87.10
2018-06-05T01:38:03.308Z,86.80
2018-06-05T01:40:32.181Z,86.70
2018-06-05T01:43:01.100Z,86.70
2018-06-05T01:45:30.024Z,86.80
2018-06-05T01:47:58.909Z,86.90
2018-06-05T01:52:57.344Z,86.90
2018-06-05T01:55:26.212Z,87.00
2018-06-05T01:57:55.123Z,87.10
2018-06-05T02:00:23.990Z,87.10
2018-06-05T02:02:52.901Z,87.40
2018-06-05T02:05:21.773Z,87.90
2018-06-05T02:07:50.706Z,88.20
2018-06-05T02:10:19.648Z,88.20
2018-06-05T02:12:48.604Z,88.00
2018-06-05T02:15:17.525Z,87.90
2018-06-05T02:17:46.496Z,87.70
2018-06-05T02:20:15.410Z,87.50
2018-06-05T02:22:44.364Z,87.20
2018-06-05T02:25:13.301Z,87.20
2018-06-05T02:27:42.223Z,87.20
2018-06-05T02:30:11.118Z,87.50
2018-06-05T02:32:40.036Z,87.40
2018-06-05T02:35:08.971Z,87.70
2018-06-05T02:37:37.853Z,87.90
2018-06-05T02:40:06.784Z,88.20
2018-06-05T02:42:35.673Z,88.10
2018-06-05T02:45:04.640Z,88.00
2018-06-05T02:47:33.562Z,87.80
2018-06-05T02:50:02.434Z,87.70
2018-06-05T02:52:31.353Z,87.80
2018-06-05T02:55:00.272Z,87.90
2018-06-05T02:57:29.130Z,87.70
2018-06-05T02:59:58.058Z,87.20
2018-06-05T03:07:24.141Z,86.90
2018-06-05T03:09:53.033Z,86.80
2018-06-05T03:12:22.008Z,86.70
2018-06-05T03:14:50.902Z,86.60
2018-06-05T03:17:19.776Z,86.60
2018-06-05T03:19:48.708Z,86.50
2018-06-05T03:22:17.589Z,86.80
2018-06-05T03:24:46.532Z,86.80
2018-06-05T03:27:15.712Z,86.90
2018-06-05T03:29:44.594Z,86.90
2018-06-05T03:32:13.518Z,86.90
2018-06-05T03:34:42.460Z,86.90
2018-06-05T03:37:11.349Z,87.00
2018-06-05T03:39:40.296Z,87.30
2018-06-05T03:42:09.236Z,87.30
2018-06-05T03:44:38.221Z,87.30
2018-06-05T03:47:07.121Z,87.60
2018-06-05T03:49:42.658Z,87.70
2018-06-05T03:52:11.641Z,87.80
2018-06-05T03:54:40.588Z,87.70
2018-06-05T03:57:09.503Z,87.90
2018-06-05T03:59:38.408Z,87.90
2018-06-05T04:02:07.304Z,88.00
2018-06-05T04:04:36.257Z,88.00
2018-06-05T04:07:05.189Z,88.10
2018-06-05T04:09:34.075Z,88.40
2018-06-05T04:14:31.465Z,88.50
2018-06-05T04:17:00.377Z,88.60
2018-06-05T04:19:29.297Z,88.70
2018-06-05T04:21:58.187Z,88.80
2018-06-05T04:24:28.073Z,89.00
2018-06-05T04:26:57.021Z,89.20
2018-06-05T04:31:54.391Z,89.70
2018-06-05T04:36:51.783Z,90.10
2018-06-05T04:39:20.720Z,89.10
2018-06-05T04:41:49.680Z,88.90
2018-06-05T04:44:18.570Z,88.60
2018-06-05T04:46:47.533Z,88.50
2018-06-05T04:51:44.908Z,88.10
2018-06-05T04:54:13.829Z,88.00
2018-06-05T04:56:42.753Z,88.20
2018-06-05T04:59:11.666Z,88.10
2018-06-05T05:04:09.064Z,88.10
2018-06-05T05:06:37.944Z,88.20
2018-06-05T05:09:07.646Z,88.30
2018-06-05T05:14:05.054Z,87.90
2018-06-05T05:16:34.025Z,87.70
2018-06-05T05:19:02.920Z,87.60
2018-06-05T05:21:31.857Z,87.50
2018-06-05T05:24:00.850Z,87.90
2018-06-05T05:26:29.812Z,88.10
2018-06-05T05:28:58.781Z,88.50
2018-06-05T05:33:56.201Z,88.70
2018-06-05T05:36:25.122Z,88.70
2018-06-05T05:38:54.033Z,88.80
2018-06-05T05:41:22.935Z,88.50
2018-06-05T05:43:51.860Z,88.60
2018-06-05T05:46:20.749Z,88.30
2018-06-05T05:48:49.686Z,87.90
2018-06-05T05:53:47.092Z,87.90
2018-06-05T05:56:16.068Z,87.20
2018-06-05T05:58:44.996Z,86.70
2018-06-05T06:01:14.324Z,85.90
2018-06-05T06:03:43.266Z,85.10
2018-06-05T06:06:12.157Z,84.30
2018-06-05T06:08:41.175Z,84.70
2018-06-05T06:11:10.085Z,84.60
2018-06-05T06:13:39.050Z,85.00
2018-06-05T06:16:07.973Z,85.00
2018-06-05T06:18:36.917Z,84.00
2018-06-05T06:21:05.968Z,82.70
2018-06-05T06:23:34.861Z,82.30
2018-06-05T06:26:03.811Z,80.90
2018-06-05T06:28:32.779Z,80.40
2018-06-05T06:31:01.686Z,81.00
2018-06-05T06:33:30.602Z,79.70
2018-06-05T06:35:59.497Z,79.90
2018-06-05T06:38:28.494Z,80.10
2018-06-05T06:40:57.354Z,79.10
2018-06-05T06:43:26.238Z,79.40
2018-06-05T06:45:55.178Z,78.80
2018-06-05T06:48:24.050Z,79.50
2018-06-05T06:50:52.978Z,79.10
2018-06-05T06:55:50.543Z,76.50
2018-06-05T06:58:19.459Z,75.70
2018-06-05T07:00:48.633Z,75.90
2018-06-05T07:03:17.514Z,74.40
2018-06-05T07:05:46.650Z,73.00
2018-06-05T07:08:15.537Z,73.40
2018-06-05T07:10:44.464Z,74.10
2018-06-05T07:13:13.345Z,74.20
2018-06-05T07:15:42.225Z,73.70
2018-06-05T07:18:11.180Z,73.30
2018-06-05T07:20:40.115Z,71.60
2018-06-05T07:23:09.000Z,71.80
2018-06-05T07:25:37.955Z,71.60
2018-06-05T07:30:35.350Z,71.10
2018-06-05T07:33:04.271Z,70.90
2018-06-05T07:35:33.196Z,71.50
2018-06-05T07:38:02.161Z,70.50
2018-06-05T07:40:31.122Z,70.10
2018-06-05T07:43:00.144Z,70.20
2018-06-05T07:45:29.040Z,70.50
2018-06-05T07:47:57.985Z,69.30
2018-06-05T07:50:27.034Z,69.30
2018-06-05T07:52:55.972Z,68.50
2018-06-05T07:55:24.932Z,69.20
2018-06-05T07:57:53.885Z,70.80
2018-06-05T08:00:22.723Z,70.10
2018-06-05T08:02:51.647Z,66.80
2018-06-05T08:05:20.609Z,68.90
2018-06-05T08:07:49.505Z,67.00
2018-06-05T08:10:18.445Z,66.60
2018-06-05T08:12:47.346Z,66.30
2018-06-05T08:15:16.321Z,67.70
2018-06-05T08:17:45.214Z,66.80
2018-06-05T08:20:14.142Z,66.60
2018-06-05T08:22:55.737Z,68.40
2018-06-05T08:25:24.716Z,66.50
2018-06-05T08:27:53.621Z,64.60
2018-06-05T08:30:22.541Z,63.90
2018-06-05T08:32:51.438Z,62.20
2018-06-05T08:35:20.385Z,62.30
2018-06-05T08:37:49.323Z,60.90
2018-06-05T08:40:18.296Z,59.60
2018-06-05T08:47:44.329Z,58.70
2018-06-05T08:50:13.220Z,57.90
2018-06-05T08:52:42.156Z,57.00
2018-06-05T08:55:11.093Z,56.60
2018-06-05T08:57:40.024Z,57.30
2018-06-05T09:02:37.429Z,56.40
2018-06-05T09:05:06.308Z,55.00
2018-06-05T09:07:35.188Z,54.80
2018-06-05T09:10:04.108Z,54.20
2018-06-05T09:12:32.992Z,53.00
2018-06-05T09:15:01.928Z,52.20
2018-06-05T09:17:30.814Z,51.70
2018-06-05T09:19:59.765Z,50.30
2018-06-05T09:22:28.676Z,50.10
2018-06-05T09:24:57.624Z,50.80
2018-06-05T09:27:26.622Z,50.00
2018-06-05T09:29:55.533Z,50.40
2018-06-05T09:32:24.467Z,51.00
2018-06-05T09:34:53.388Z,51.10
2018-06-05T09:37:22.288Z,50.10
2018-06-05T09:39:51.205Z,49.60
2018-06-05T09:42:20.081Z,49.20
2018-06-05T09:44:49.057Z,48.90
2018-06-05T09:47:18.016Z,47.70
2018-06-05T09:49:46.953Z,46.90
2018-06-05T09:52:15.867Z,47.40
2018-06-05T09:54:44.729Z,46.50
2018-06-05T09:57:13.632Z,46.80
2018-06-05T09:59:42.505Z,48.60
2018-06-05T10:02:11.402Z,48.90
2018-06-05T10:04:40.285Z,47.50
2018-06-05T10:07:09.176Z,47.50
2018-06-05T10:12:06.655Z,47.70
2018-06-05T10:14:35.609Z,48.30
2018-06-05T10:17:04.509Z,48.80
2018-06-05T10:19:33.410Z,47.70
2018-06-05T10:22:02.326Z,47.00
2018-06-05T10:24:31.264Z,47.00
2018-06-05T10:27:00.165Z,47.40
2018-06-05T10:29:29.070Z,47.70
2018-06-05T10:34:26.481Z,45.50
2018-06-05T10:36:55.409Z,44.30
2018-06-05T10:39:24.352Z,42.30
2018-06-05T10:41:53.247Z,43.60
2018-06-05T10:44:22.178Z,42.60
2018-06-05T10:46:51.078Z,44.20
2018-06-05T10:49:20.024Z,44.60
2018-06-05T10:51:48.910Z,42.70
2018-06-05T10:54:17.896Z,42.90
2018-06-05T10:56:46.860Z,44.50
2018-06-05T11:01:44.262Z,43.40
2018-06-05T11:04:13.210Z,42.70
2018-06-05T11:06:42.102Z,42.50
2018-06-05T11:09:11.401Z,42.50
2018-06-05T11:11:40.364Z,42.70
2018-06-05T11:14:09.228Z,41.70
2018-06-05T11:16:38.163Z,40.30
2018-06-05T11:19:07.092Z,42.10
2018-06-05T11:21:36.035Z,41.00
2018-06-05T11:24:04.925Z,40.40
2018-06-05T11:26:33.853Z,40.40
2018-06-05T11:29:02.779Z,39.90
2018-06-05T11:31:31.705Z,40.10
2018-06-05T11:34:00.618Z,40.50
2018-06-05T11:36:29.557Z,39.70
2018-06-05T11:38:58.522Z,38.90
2018-06-05T11:41:27.469Z,40.10
2018-06-05T11:43:56.390Z,38.90
2018-06-05T11:46:25.288Z,39.40
2018-06-05T11:51:22.705Z,40.30
2018-06-05T11:53:51.632Z,39.80
2018-06-05T11:56:20.533Z,38.90
2018-06-05T11:58:49.516Z,38.30
2018-06-05T12:01:18.461Z,38.80
2018-06-05T12:03:47.393Z,39.70
2018-06-05T12:06:16.333Z,40.00
2018-06-05T12:08:45.252Z,40.10
2018-06-05T12:11:14.181Z,38.70
2018-06-05T12:13:43.414Z,39.00
2018-06-05T12:16:12.374Z,42.50
2018-06-05T12:18:41.281Z,46.20
2018-06-05T12:21:10.206Z,53.10
2018-06-05T12:23:39.216Z,53.50
2018-06-05T12:26:08.085Z,56.50
2018-06-05T12:28:37.009Z,58.50
2018-06-05T12:31:05.930Z,60.20
2018-06-05T12:36:03.362Z,61.60
2018-06-05T12:41:01.058Z,57.30
2018-06-05T12:43:29.941Z,61.60
2018-06-05T12:45:58.861Z,60.90
2018-06-05T12:48:27.774Z,63.10
2018-06-05T12:53:25.232Z,62.80
2018-06-05T12:55:54.172Z,64.10
2018-06-05T12:58:23.246Z,64.50
2018-06-05T13:00:52.180Z,63.10
2018-06-05T13:03:21.097Z,64.50
2018-06-05T13:05:50.030Z,62.00
2018-06-05T13:08:18.967Z,61.50
2018-06-05T13:10:47.994Z,62.80
2018-06-05T13:15:45.589Z,65.20
2018-06-05T13:18:14.969Z,64.10
2018-06-05T13:23:13.201Z,68.50
2018-06-05T13:25:42.037Z,67.10
2018-06-05T13:28:10.985Z,70.70
2018-06-05T13:30:40.021Z,72.20
2018-06-05T13:33:08.915Z,73.00
2018-06-05T13:38:06.381Z,72.10
2018-06-05T13:40:35.357Z,73.00
2018-06-05T13:43:04.260Z,71.70
2018-06-05T13:45:33.201Z,69.30
2018-06-05T13:48:02.111Z,69.30
2018-06-05T13:50:31.082Z,69.70
2018-06-05T13:53:00.253Z,69.70
2018-06-05T13:57:57.749Z,69.10
2018-06-05T14:00:27.453Z,70.00
2018-06-05T14:02:56.687Z,69.50
2018-06-05T14:05:26.022Z,69.20
2018-06-05T14:07:55.737Z,69.40
2018-06-05T14:10:26.683Z,70.00
2018-06-05T14:15:24.666Z,69.10
2018-06-05T14:17:53.924Z,69.30
2018-06-05T14:20:22.841Z,68.40
2018-06-05T14:22:52.675Z,68.00
2018-06-05T14:30:18.757Z,68.80
2018-06-05T14:32:47.910Z,67.80
2018-06-05T14:35:16.896Z,68.20
2018-06-05T14:37:45.805Z,67.60
2018-06-05T14:40:14.711Z,67.80
2018-06-05T14:45:13.281Z,67.60
2018-06-05T14:47:42.437Z,67.70
2018-06-05T14:50:12.117Z,67.30
2018-06-05T14:55:09.799Z,69.10
2018-06-05T14:57:38.733Z,69.50
2018-06-05T15:00:07.654Z,70.40
2018-06-05T15:02:36.658Z,70.20
2018-06-05T15:05:05.625Z,70.00
2018-06-05T15:07:34.622Z,70.70
2018-06-05T15:10:03.522Z,70.00
2018-06-05T15:17:29.771Z,70.60
2018-06-05T15:19:58.668Z,71.50
2018-06-05T15:22:27.613Z,72.20
2018-06-05T15:24:56.792Z,71.90
2018-06-05T15:29:54.177Z,70.40
2018-06-05T15:32:23.132Z,70.60
2018-06-05T15:34:52.029Z,69.90
2018-06-05T15:37:20.934Z,70.20
2018-06-05T15:42:18.392Z,72.10
2018-06-05T15:44:47.330Z,71.80
2018-06-05T15:47:16.248Z,71.70
2018-06-05T15:49:45.181Z,71.00
2018-06-05T15:52:14.129Z,70.70
2018-06-05T15:54:43.021Z,71.30
2018-06-05T15:57:11.941Z,70.70
2018-06-05T15:59:40.872Z,70.40
2018-06-05T16:02:09.753Z,71.40
2018-06-05T16:04:38.740Z,70.80
2018-06-05T16:07:07.654Z,71.20
2018-06-05T16:09:36.581Z,72.30
2018-06-05T16:12:05.577Z,73.20
2018-06-05T16:14:34.489Z,73.40
2018-06-05T16:17:03.469Z,73.30
2018-06-05T16:19:32.442Z,73.90
2018-06-05T16:24:30.241Z,74.50
2018-06-05T16:26:59.170Z,73.90
2018-06-05T16:29:28.128Z,73.90
2018-06-05T16:31:57.077Z,73.40
2018-06-05T16:34:25.949Z,74.20
2018-06-05T16:36:54.930Z,74.40
2018-06-05T16:39:24.466Z,75.40
2018-06-05T16:41:53.353Z,76.30
2018-06-05T16:44:22.271Z,77.60
2018-06-05T16:46:51.181Z,78.20
2018-06-05T16:49:20.097Z,78.40
2018-06-05T16:51:48.964Z,78.90
2018-06-05T16:54:17.897Z,78.80
2018-06-05T16:56:46.836Z,76.30
2018-06-05T16:59:15.737Z,76.60
2018-06-05T17:01:44.730Z,75.80
2018-06-05T17:04:13.690Z,75.20
2018-06-05T17:06:42.596Z,75.70
2018-06-05T17:09:11.477Z,75.90
2018-06-05T17:11:40.390Z,76.10
2018-06-05T17:14:09.368Z,76.60
2018-06-05T17:16:38.273Z,77.60
2018-06-05T17:19:07.168Z,78.20
2018-06-05T17:21:36.105Z,78.50
2018-06-05T17:24:04.981Z,79.30
2018-06-05T17:26:33.889Z,79.50
2018-06-05T17:29:02.832Z,79.70
2018-06-05T17:31:31.713Z,80.80
2018-06-05T17:34:00.656Z,81.00
2018-06-05T17:36:29.584Z,81.60
2018-06-05T17:38:58.467Z,82.10
2018-06-05T17:41:27.409Z,82.20
2018-06-05T17:48:53.449Z,82.00
2018-06-05T17:51:22.398Z,81.60
2018-06-05T17:53:51.284Z,81.70
2018-06-05T17:56:20.226Z,82.10
2018-06-05T17:58:49.565Z,82.20
2018-06-05T18:01:18.531Z,82.20
2018-06-05T18:08:44.464Z,82.70
2018-06-05T18:11:13.508Z,82.70
2018-06-05T18:13:42.460Z,83.00
2018-06-05T18:16:11.438Z,83.00
2018-06-05T18:18:40.435Z,83.50
2018-06-05T18:21:09.429Z,83.60
2018-06-05T18:23:38.376Z,83.30
2018-06-05T18:26:07.320Z,83.40
2018-06-05T18:28:36.344Z,83.40
2018-06-05T18:31:05.312Z,83.50
2018-06-05T18:33:34.261Z,83.60
2018-06-05T18:36:03.233Z,83.40
2018-06-05T18:38:32.172Z,83.50
2018-06-05T18:41:01.078Z,83.50
2018-06-05T18:43:30.621Z,83.40
2018-06-05T18:45:59.862Z,84.60
2018-06-05T18:48:28.903Z,83.50
2018-06-05T18:50:58.061Z,83.50
2018-06-05T18:53:27.199Z,83.80
2018-06-05T18:55:56.684Z,83.60
2018-06-05T18:58:25.574Z,83.90
2018-06-05T19:00:56.063Z,83.90
2018-06-05T19:03:24.991Z,84.00
2018-06-05T19:08:22.777Z,84.40
2018-06-05T19:13:20.626Z,84.00
2018-06-05T19:15:49.924Z,84.80
2018-06-05T19:18:19.041Z,83.20
2018-06-05T19:23:17.705Z,83.40
2018-06-05T19:25:46.677Z,82.50
2018-06-05T19:28:15.589Z,82.50
2018-06-05T19:30:44.600Z,82.50
2018-06-05T19:33:13.544Z,82.20
2018-06-05T19:35:42.451Z,81.80
2018-06-05T19:38:11.477Z,81.90
2018-06-05T19:40:40.409Z,82.10
2018-06-05T19:45:37.797Z,82.10
2018-06-05T19:48:06.733Z,83.20
2018-06-05T19:50:35.662Z,83.30
2018-06-05T19:53:04.776Z,83.00
2018-06-05T19:55:33.669Z,83.40
2018-06-05T19:58:02.605Z,83.70
2018-06-05T20:00:31.593Z,83.70
2018-06-05T20:03:00.520Z,83.50
2018-06-05T20:05:29.423Z,83.60
2018-06-05T20:07:58.413Z,83.90
2018-06-05T20:12:55.959Z,83.00
2018-06-05T20:15:24.896Z,82.80
2018-06-05T20:17:53.816Z,82.60
2018-06-05T20:20:22.813Z,82.50
2018-06-05T20:22:51.713Z,82.10
2018-06-05T20:25:20.632Z,82.00
2018-06-05T20:27:49.548Z,82.10
2018-06-05T20:30:18.571Z,81.90
2018-06-05T20:32:47.473Z,82.00
2018-06-05T20:35:16.503Z,82.70
2018-06-05T20:37:45.484Z,83.30
2018-06-05T20:40:14.432Z,83.50
2018-06-05T20:42:43.345Z,84.10
2018-06-05T20:45:12.437Z,84.20
2018-06-05T20:47:41.313Z,84.40
2018-06-05T20:50:10.237Z,84.30
2018-06-05T20:52:39.150Z,84.40
2018-06-05T20:57:36.638Z,84.50
2018-06-05T21:00:06.114Z,84.00
2018-06-05T21:02:35.025Z,83.80
2018-06-05T21:05:04.002Z,83.90
2018-06-05T21:07:32.926Z,84.00
2018-06-05T21:10:01.838Z,83.50
2018-06-05T21:12:30.784Z,83.10
2018-06-05T21:14:59.693Z,82.70
2018-06-05T21:17:28.600Z,82.60
2018-06-05T21:19:57.501Z,82.20
2018-06-05T21:22:26.457Z,82.20
2018-06-05T21:32:20.873Z,82.60
2018-06-05T21:34:49.800Z,82.60
2018-06-05T21:39:47.336Z,83.00
2018-06-05T21:42:16.275Z,82.90
2018-06-05T21:44:45.150Z,82.90
2018-06-05T21:49:42.640Z,82.90
2018-06-05T21:52:11.632Z,83.10
2018-06-05T21:54:40.589Z,83.20
2018-06-05T21:59:38.085Z,84.10
2018-06-05T22:02:07.085Z,83.20
2018-06-05T22:04:35.979Z,83.00
2018-06-05T22:07:04.944Z,83.10
2018-06-05T22:09:33.905Z,83.30
2018-06-05T22:12:02.826Z,83.60
2018-06-05T22:14:31.705Z,83.40
2018-06-05T22:17:00.641Z,83.40
2018-06-05T22:19:29.584Z,83.40
2018-06-05T22:21:58.608Z,83.40
2018-06-05T22:26:56.003Z,83.50
2018-06-05T22:29:24.905Z,83.60
2018-06-05T22:31:53.833Z,83.50
2018-06-05T22:34:22.745Z,83.30
2018-06-05T22:39:20.180Z,83.30
2018-06-05T22:41:49.105Z,83.30
2018-06-05T22:44:18.011Z,83.30
2018-06-05T22:46:46.980Z,83.40
2018-06-05T22:49:15.930Z,83.70
2018-06-05T22:51:44.933Z,84.70
2018-06-05T22:54:13.825Z,84.00
2018-06-05T22:56:42.797Z,84.00
2018-06-05T22:59:11.725Z,84.00
2018-06-05T23:01:40.618Z,84.20
2018-06-05T23:04:09.577Z,84.60
2018-06-05T23:09:17.150Z,85.20
2018-06-05T23:11:46.084Z,85.60
2018-06-05T23:14:15.025Z,85.70
2018-06-05T23:19:12.449Z,85.10
2018-06-05T23:21:41.380Z,84.80
2018-06-05T23:24:10.663Z,84.50
2018-06-05T23:29:08.109Z,84.10
2018-06-05T23:31:37.026Z,83.90
2018-06-05T23:34:06.002Z,83.90
2018-06-05T23:36:34.928Z,83.80
2018-06-05T23:39:04.129Z,83.90
2018-06-05T23:41:33.042Z,84.10
2018-06-05T23:44:02.022Z,84.10
2018-06-05T23:46:30.944Z,84.10
2018-06-05T23:48:59.917Z,84.10
2018-06-05T23:51:28.943Z,84.10
2018-06-05T23:53:57.872Z,84.10
2018-06-05T23:56:26.897Z,84.20
